createdAt,value
2023-03-15T00:01:14.594Z,3.37
2023-03-15T00:03:41.896Z,2.30
2023-03-15T00:06:08.868Z,4.07
2023-03-15T00:08:35.391Z,2.97
2023-03-15T00:11:03.824Z,2.10
2023-03-15T00:13:31.261Z,1.93
2023-03-15T00:15:59.662Z,2.17
2023-03-15T00:18:26.524Z,3.23
2023-03-15T00:20:53.042Z,2.37
2023-03-15T00:23:19.568Z,2.43
2023-03-15T00:25:47.001Z,3.57
2023-03-15T00:28:15.337Z,3.13
2023-03-15T00:30:42.458Z,5.17
2023-03-15T00:33:09.196Z,2.20
2023-03-15T00:35:39.562Z,2.40
2023-03-15T00:38:06.306Z,3.00
2023-03-15T00:40:32.862Z,3.23
2023-03-15T00:42:59.442Z,2.17
2023-03-15T00:45:27.376Z,3.67
2023-03-15T00:47:55.044Z,2.80
2023-03-15T00:50:22.914Z,3.70
2023-03-15T00:52:49.632Z,3.63
2023-03-15T00:55:17.725Z,2.80
2023-03-15T00:57:45.849Z,3.97
2023-03-15T01:00:14.777Z,3.60
2023-03-15T01:02:42.688Z,3.30
2023-03-15T01:05:10.116Z,5.07
2023-03-15T01:07:36.825Z,3.30
2023-03-15T01:10:05.414Z,3.43
2023-03-15T01:12:33.048Z,2.67
2023-03-15T01:14:59.935Z,4.73
2023-03-15T01:17:26.645Z,2.90
2023-03-15T01:19:54.508Z,5.03
2023-03-15T01:22:22.232Z,4.00
2023-03-15T01:24:48.704Z,3.33
2023-03-15T01:27:15.417Z,3.87
2023-03-15T01:29:41.930Z,4.03
2023-03-15T01:32:08.451Z,3.57
2023-03-15T01:34:35.985Z,6.07
2023-03-15T01:37:03.980Z,5.27
2023-03-15T01:39:30.747Z,3.57
2023-03-15T01:41:57.610Z,3.67
2023-03-15T01:44:24.826Z,3.63
2023-03-15T01:46:52.319Z,3.00
2023-03-15T01:49:23.830Z,3.80
2023-03-15T01:51:54.525Z,2.83
2023-03-15T01:54:26.777Z,4.07
2023-03-15T01:56:58.787Z,4.00
2023-03-15T01:59:28.836Z,2.40
2023-03-15T02:01:55.853Z,3.63
2023-03-15T02:04:27.861Z,3.97
2023-03-15T02:06:58.414Z,4.73
2023-03-15T02:09:31.813Z,4.27
2023-03-15T02:11:59.035Z,4.00
2023-03-15T02:14:25.723Z,3.20
2023-03-15T02:16:52.270Z,3.67
2023-03-15T02:19:29.936Z,3.13
2023-03-15T02:22:02.866Z,3.53
2023-03-15T02:24:40.158Z,3.80
2023-03-15T02:27:06.813Z,3.87
2023-03-15T02:29:34.865Z,2.60
2023-03-15T02:32:02.137Z,6.93
2023-03-15T02:34:28.649Z,1.60
2023-03-15T02:36:55.188Z,4.67
2023-03-15T02:39:22.632Z,3.47
2023-03-15T02:41:53.091Z,3.70
2023-03-15T02:44:23.395Z,3.00
2023-03-15T02:46:53.309Z,3.77
2023-03-15T02:49:23.472Z,3.60
2023-03-15T02:51:50.010Z,3.20
2023-03-15T02:54:16.535Z,4.37
2023-03-15T02:56:43.092Z,2.57
2023-03-15T02:59:09.661Z,3.57
2023-03-15T03:01:36.256Z,1.97
2023-03-15T03:04:04.431Z,1.87
2023-03-15T03:06:30.932Z,2.70
2023-03-15T03:08:57.478Z,3.67
2023-03-15T03:11:24.032Z,3.97
2023-03-15T03:13:50.567Z,3.50
2023-03-15T03:16:17.090Z,3.37
2023-03-15T03:18:43.640Z,3.27
2023-03-15T03:21:11.518Z,2.37
2023-03-15T03:23:38.105Z,5.73
2023-03-15T03:26:13.620Z,3.17
2023-03-15T03:28:40.144Z,2.03
2023-03-15T03:31:06.680Z,4.53
2023-03-15T03:33:33.219Z,4.13
2023-03-15T03:36:01.129Z,3.93
2023-03-15T03:38:29.024Z,2.90
2023-03-15T03:40:55.575Z,2.90
2023-03-15T03:43:22.105Z,2.33
2023-03-15T03:45:48.756Z,3.70
2023-03-15T03:48:15.270Z,2.33
2023-03-15T03:50:41.824Z,5.97
2023-03-15T03:53:08.322Z,3.67
2023-03-15T03:55:38.067Z,3.27
2023-03-15T03:58:04.567Z,4.17
2023-03-15T04:00:31.070Z,3.17
2023-03-15T04:02:57.606Z,2.17
2023-03-15T04:05:24.122Z,2.23
2023-03-15T04:07:50.672Z,2.83
2023-03-15T04:10:17.228Z,3.37
2023-03-15T04:12:45.380Z,2.50
2023-03-15T04:15:12.383Z,4.03
2023-03-15T04:17:39.344Z,2.47
2023-03-15T04:20:06.825Z,2.37
2023-03-15T04:22:33.505Z,2.67
2023-03-15T04:25:00.134Z,1.93
2023-03-15T04:27:26.629Z,6.17
2023-03-15T04:29:54.466Z,3.57
2023-03-15T04:32:21.040Z,3.23
2023-03-15T04:34:47.583Z,2.37
2023-03-15T04:37:14.094Z,2.90
2023-03-15T04:39:40.624Z,3.70
2023-03-15T04:42:07.663Z,4.20
2023-03-15T04:44:34.164Z,3.13
2023-03-15T04:47:02.150Z,3.33
2023-03-15T04:49:28.681Z,4.00
2023-03-15T04:51:55.332Z,3.23
2023-03-15T04:54:21.851Z,2.30
2023-03-15T04:56:48.401Z,3.27
2023-03-15T04:59:14.896Z,2.47
2023-03-15T05:01:41.420Z,3.00
2023-03-15T05:04:09.289Z,3.10
2023-03-15T05:06:35.787Z,3.37
2023-03-15T05:09:02.286Z,2.67
2023-03-15T05:11:28.818Z,2.93
2023-03-15T05:13:55.332Z,3.57
2023-03-15T05:16:21.889Z,3.47
2023-03-15T05:18:48.476Z,4.27
2023-03-15T05:21:16.351Z,2.00
2023-03-15T05:23:42.922Z,3.90
2023-03-15T05:26:09.450Z,2.53
2023-03-15T05:28:36.047Z,4.07
2023-03-15T05:31:02.625Z,4.70
2023-03-15T05:33:29.333Z,5.57
2023-03-15T05:35:55.887Z,3.53
2023-03-15T05:38:23.866Z,3.67
2023-03-15T05:40:50.375Z,4.57
2023-03-15T05:43:16.926Z,5.17
2023-03-15T05:45:43.534Z,2.13
2023-03-15T05:48:10.232Z,2.33
2023-03-15T05:50:36.737Z,3.20
2023-03-15T05:53:03.275Z,4.87
2023-03-15T05:55:31.130Z,3.77
2023-03-15T05:57:57.691Z,4.07
2023-03-15T06:00:24.251Z,5.13
2023-03-15T06:02:51.118Z,6.50
2023-03-15T06:05:17.748Z,4.57
2023-03-15T06:07:44.252Z,4.67
2023-03-15T06:10:11.343Z,4.90
2023-03-15T06:12:39.188Z,5.37
2023-03-15T06:15:06.888Z,4.57
2023-03-15T06:17:33.533Z,3.43
2023-03-15T06:20:00.042Z,3.23
2023-03-15T06:22:26.546Z,5.43
2023-03-15T06:24:53.132Z,3.27
2023-03-15T06:27:19.661Z,5.07
2023-03-15T06:29:47.625Z,5.13
2023-03-15T06:32:14.112Z,5.53
2023-03-15T06:34:40.823Z,5.03
2023-03-15T06:37:07.532Z,5.10
2023-03-15T06:39:34.188Z,4.83
2023-03-15T06:42:00.672Z,3.67
2023-03-15T06:44:27.184Z,3.27
2023-03-15T06:46:55.091Z,4.87
2023-03-15T06:49:21.604Z,3.77
2023-03-15T06:51:48.138Z,4.13
2023-03-15T06:54:14.667Z,3.97
2023-03-15T06:56:41.182Z,3.67
2023-03-15T06:59:07.724Z,9.07
2023-03-15T07:01:34.387Z,4.50
2023-03-15T07:04:02.292Z,5.40
2023-03-15T07:06:28.839Z,4.27
2023-03-15T07:08:55.374Z,5.87
2023-03-15T07:11:22.075Z,5.73
2023-03-15T07:13:48.650Z,6.37
2023-03-15T07:16:15.192Z,5.57
2023-03-15T07:18:41.744Z,3.37
2023-03-15T07:21:09.696Z,4.17
2023-03-15T07:23:36.323Z,3.13
2023-03-15T07:26:02.940Z,6.53
2023-03-15T07:28:29.486Z,6.47
2023-03-15T07:30:57.532Z,5.10
2023-03-15T07:33:25.741Z,6.70
2023-03-15T07:35:53.509Z,4.70
2023-03-15T07:38:22.157Z,4.23
2023-03-15T07:40:48.705Z,3.87
2023-03-15T07:43:15.737Z,7.83
2023-03-15T07:45:42.662Z,8.37
2023-03-15T07:48:09.364Z,6.83
2023-03-15T07:50:35.886Z,5.77
2023-03-15T07:53:03.409Z,5.10
2023-03-15T07:55:31.373Z,6.63
2023-03-15T07:57:57.952Z,4.77
2023-03-15T08:00:24.790Z,6.57
2023-03-15T08:02:51.475Z,9.07
2023-03-15T08:05:18.354Z,7.13
2023-03-15T08:07:45.165Z,6.63
2023-03-15T08:10:12.412Z,8.17
2023-03-15T08:12:40.850Z,6.17
2023-03-15T08:15:08.366Z,6.43
2023-03-15T08:17:34.908Z,6.77
2023-03-15T08:20:01.440Z,7.17
2023-03-15T08:22:27.970Z,4.97
2023-03-15T08:24:54.515Z,9.43
2023-03-15T08:27:21.023Z,8.83
2023-03-15T08:29:48.924Z,5.60
2023-03-15T08:32:16.946Z,7.07
2023-03-15T08:34:43.520Z,4.90
2023-03-15T08:37:10.422Z,9.30
2023-03-15T08:39:36.952Z,4.10
2023-03-15T08:42:03.703Z,6.13
2023-03-15T08:44:30.251Z,5.80
2023-03-15T08:46:58.179Z,6.57
2023-03-15T08:49:24.972Z,5.27
2023-03-15T08:51:51.484Z,5.43
2023-03-15T08:54:18.005Z,5.93
2023-03-15T08:56:44.578Z,4.40
2023-03-15T08:59:12.797Z,5.50
2023-03-15T09:01:41.030Z,5.13
2023-03-15T09:04:08.897Z,4.47
2023-03-15T09:06:35.439Z,5.00
2023-03-15T09:09:01.930Z,5.13
2023-03-15T09:11:28.446Z,6.57
2023-03-15T09:13:54.926Z,4.73
2023-03-15T09:16:21.560Z,6.27
2023-03-15T09:18:48.119Z,5.10
2023-03-15T09:21:15.983Z,4.20
2023-03-15T09:23:42.542Z,4.37
2023-03-15T09:26:09.168Z,5.87
2023-03-15T09:28:35.696Z,5.27
2023-03-15T09:31:05.341Z,4.63
2023-03-15T09:33:32.060Z,3.57
2023-03-15T09:35:59.116Z,3.63
2023-03-15T09:38:27.093Z,3.93
2023-03-15T09:40:58.189Z,6.80
2023-03-15T09:43:49.420Z,4.17
2023-03-15T09:46:26.960Z,4.20
2023-03-15T09:48:59.809Z,5.83
2023-03-15T09:51:36.228Z,3.63
2023-03-15T09:54:08.384Z,4.63
2023-03-15T09:56:38.046Z,4.83
2023-03-15T09:59:06.378Z,4.93
2023-03-15T10:01:36.085Z,4.13
2023-03-15T10:04:10.184Z,4.40
2023-03-15T10:06:38.736Z,3.53
2023-03-15T10:09:13.352Z,4.97
2023-03-15T10:11:47.002Z,3.27
2023-03-15T10:14:23.734Z,4.10
2023-03-15T10:16:50.986Z,8.17
2023-03-15T10:19:27.055Z,4.23
2023-03-15T10:21:57.893Z,2.70
2023-03-15T10:24:33.300Z,4.40
2023-03-15T10:27:23.083Z,4.70
2023-03-15T10:29:52.798Z,5.03
2023-03-15T10:32:24.451Z,4.10
2023-03-15T10:34:52.942Z,4.70
2023-03-15T10:37:19.761Z,4.23
2023-03-15T10:39:50.721Z,3.37
2023-03-15T10:42:40.064Z,3.50
2023-03-15T10:45:18.481Z,4.93
2023-03-15T10:47:50.496Z,4.23
2023-03-15T10:50:26.700Z,2.93
2023-03-15T10:52:56.084Z,5.33
2023-03-15T10:55:30.970Z,4.33
2023-03-15T10:57:58.953Z,4.97
2023-03-15T11:00:31.128Z,4.47
2023-03-15T11:03:05.688Z,6.20
2023-03-15T11:05:38.263Z,5.90
2023-03-15T11:08:12.270Z,3.77
2023-03-15T11:10:40.438Z,4.17
2023-03-15T11:13:12.255Z,3.03
2023-03-15T11:15:40.306Z,4.53
2023-03-15T11:18:16.622Z,5.33
2023-03-15T11:20:44.284Z,4.77
2023-03-15T11:23:15.669Z,5.40
2023-03-15T11:25:43.902Z,3.63
2023-03-15T11:28:17.774Z,6.20
2023-03-15T11:30:46.260Z,3.33
2023-03-15T11:33:29.851Z,4.80
2023-03-15T11:35:58.324Z,3.27
2023-03-15T11:38:30.109Z,3.10
2023-03-15T11:40:59.830Z,2.67
2023-03-15T11:43:29.663Z,4.70
2023-03-15T11:45:59.033Z,3.40
2023-03-15T11:48:31.113Z,3.33
2023-03-15T11:50:59.151Z,6.27
2023-03-15T11:53:32.039Z,2.53
2023-03-15T11:56:20.687Z,3.77
2023-03-15T11:59:04.198Z,3.83
2023-03-15T12:01:30.769Z,2.50
2023-03-15T12:04:29.366Z,3.57
2023-03-15T12:06:57.002Z,4.10
2023-03-15T12:09:54.324Z,7.27
2023-03-15T12:12:46.153Z,5.67
2023-03-15T12:15:47.611Z,2.83
2023-03-15T12:18:17.672Z,3.03
2023-03-15T12:20:51.562Z,1.97
2023-03-15T12:23:30.776Z,2.00
2023-03-15T12:25:59.204Z,1.40
2023-03-15T12:28:31.058Z,2.27
2023-03-15T12:30:59.821Z,1.33
2023-03-15T12:33:27.569Z,1.63
2023-03-15T12:36:00.507Z,1.60
2023-03-15T12:38:33.503Z,1.37
2023-03-15T12:41:00.043Z,1.37
2023-03-15T12:43:39.349Z,1.83
2023-03-15T12:46:06.063Z,1.47
2023-03-15T12:48:33.309Z,1.53
2023-03-15T12:51:05.429Z,2.20
2023-03-15T12:53:40.557Z,1.67
2023-03-15T12:56:26.755Z,2.33
2023-03-15T12:59:00.101Z,1.50
2023-03-15T13:01:26.691Z,2.07
2023-03-15T13:03:54.630Z,1.87
2023-03-15T13:06:35.124Z,1.53
2023-03-15T13:09:05.833Z,2.50
2023-03-15T13:11:40.764Z,2.27
2023-03-15T13:14:30.157Z,2.10
2023-03-15T13:17:07.054Z,1.93
2023-03-15T13:19:39.949Z,1.60
2023-03-15T13:22:17.620Z,1.30
2023-03-15T13:24:52.622Z,1.37
2023-03-15T13:27:33.074Z,1.50
2023-03-15T13:30:02.484Z,2.17
2023-03-15T13:32:29.050Z,1.60
2023-03-15T13:34:57.105Z,1.80
2023-03-15T13:37:24.912Z,1.53
2023-03-15T13:39:56.407Z,1.90
2023-03-15T13:42:24.651Z,3.23
2023-03-15T13:45:12.674Z,3.37
2023-03-15T13:47:40.642Z,2.30
2023-03-15T13:50:12.985Z,2.10
2023-03-15T13:52:41.026Z,1.70
2023-03-15T13:55:08.723Z,1.80
2023-03-15T13:57:36.503Z,2.00
2023-03-15T14:00:08.089Z,1.60
2023-03-15T14:02:38.419Z,2.63
2023-03-15T14:05:07.598Z,2.60
2023-03-15T14:07:36.149Z,1.33
2023-03-15T14:10:20.772Z,1.43
2023-03-15T14:12:47.445Z,1.60
2023-03-15T14:15:17.056Z,1.43
2023-03-15T14:17:57.484Z,1.47
2023-03-15T14:20:28.424Z,1.60
2023-03-15T14:22:58.562Z,1.30
2023-03-15T14:25:25.137Z,1.43
2023-03-15T14:27:51.669Z,1.10
2023-03-15T14:30:19.674Z,1.70
2023-03-15T14:32:53.909Z,1.40
2023-03-15T14:35:23.084Z,1.03
2023-03-15T14:38:01.073Z,1.40
2023-03-15T14:40:30.565Z,1.57
2023-03-15T14:42:57.115Z,1.57
2023-03-15T14:45:23.772Z,1.90
2023-03-15T14:47:57.103Z,1.73
2023-03-15T14:50:27.050Z,1.00
2023-03-15T14:52:53.852Z,1.30
2023-03-15T14:55:23.271Z,1.43
2023-03-15T14:57:49.841Z,1.93
2023-03-15T15:00:17.909Z,1.10
2023-03-15T15:02:45.980Z,1.60
2023-03-15T15:05:21.472Z,1.47
2023-03-15T15:07:48.420Z,1.10
2023-03-15T15:10:15.236Z,0.93
2023-03-15T15:12:41.808Z,1.23
2023-03-15T15:15:15.460Z,0.93
2023-03-15T15:17:41.995Z,1.00
2023-03-15T15:20:10.041Z,1.70
2023-03-15T15:22:38.602Z,1.00
2023-03-15T15:25:13.850Z,1.60
2023-03-15T15:27:40.661Z,1.33
2023-03-15T15:30:12.167Z,1.63
2023-03-15T15:32:43.129Z,0.70
2023-03-15T15:35:10.504Z,0.93
2023-03-15T15:37:38.464Z,1.10
2023-03-15T15:40:08.717Z,1.80
2023-03-15T15:42:35.227Z,2.33
2023-03-15T15:45:01.743Z,1.97
2023-03-15T15:47:28.277Z,2.20
2023-03-15T15:49:54.814Z,1.10
2023-03-15T15:52:21.355Z,0.90
2023-03-15T15:54:49.246Z,1.27
2023-03-15T15:57:18.179Z,1.10
2023-03-15T15:59:44.737Z,1.20
2023-03-15T16:02:15.044Z,1.27
2023-03-15T16:04:42.481Z,1.67
2023-03-15T16:07:10.213Z,1.23
2023-03-15T16:09:37.552Z,1.57
2023-03-15T16:12:12.305Z,1.33
2023-03-15T16:14:38.852Z,1.93
2023-03-15T16:17:10.449Z,2.87
2023-03-15T16:19:36.961Z,3.17
2023-03-15T16:22:03.541Z,2.20
2023-03-15T16:24:33.238Z,2.10
2023-03-15T16:27:03.002Z,1.70
2023-03-15T16:29:35.942Z,2.23
2023-03-15T16:32:15.917Z,3.63
2023-03-15T16:34:49.547Z,2.10
2023-03-15T16:37:20.716Z,1.80
2023-03-15T16:39:49.254Z,1.97
2023-03-15T16:42:17.636Z,1.87
2023-03-15T16:44:45.465Z,1.07
2023-03-15T16:47:12.173Z,1.47
2023-03-15T16:49:38.721Z,1.40
2023-03-15T16:52:07.222Z,1.10
2023-03-15T16:54:41.472Z,1.90
2023-03-15T16:57:14.030Z,1.53
2023-03-15T16:59:40.533Z,3.70
2023-03-15T17:02:16.612Z,1.73
2023-03-15T17:04:43.180Z,3.43
2023-03-15T17:07:10.550Z,1.90
2023-03-15T17:09:37.066Z,3.40
2023-03-15T17:12:03.986Z,1.80
2023-03-15T17:14:32.526Z,2.30
2023-03-15T17:17:01.458Z,2.13
2023-03-15T17:19:29.400Z,2.77
2023-03-15T17:21:55.960Z,2.20
2023-03-15T17:24:22.686Z,2.17
2023-03-15T17:26:49.269Z,1.37
2023-03-15T17:29:15.982Z,1.73
2023-03-15T17:31:42.827Z,3.50
2023-03-15T17:34:09.427Z,2.87
2023-03-15T17:36:37.729Z,3.03
2023-03-15T17:39:05.210Z,4.63
2023-03-15T17:41:34.309Z,7.13
2023-03-15T17:44:00.868Z,6.40
2023-03-15T17:46:27.764Z,6.47
2023-03-15T17:48:54.433Z,5.37
2023-03-15T17:51:23.189Z,5.40
2023-03-15T17:53:51.911Z,8.30
2023-03-15T17:56:18.903Z,9.67
2023-03-15T17:58:45.733Z,8.70
2023-03-15T18:01:15.510Z,8.33
2023-03-15T18:03:42.391Z,9.67
2023-03-15T18:06:09.067Z,11.80
2023-03-15T18:08:35.635Z,12.30
2023-03-15T18:11:03.625Z,10.10
2023-03-15T18:13:30.142Z,6.47
2023-03-15T18:15:56.700Z,4.73
2023-03-15T18:18:23.205Z,4.43
2023-03-15T18:20:49.810Z,4.10
2023-03-15T18:23:17.540Z,4.00
2023-03-15T18:25:44.099Z,3.23
2023-03-15T18:28:12.200Z,6.13
2023-03-15T18:30:38.778Z,4.70
2023-03-15T18:33:05.428Z,4.57
2023-03-15T18:35:34.353Z,3.53
2023-03-15T18:38:01.177Z,5.30
2023-03-15T18:40:29.448Z,5.00
2023-03-15T18:42:56.492Z,5.00
2023-03-15T18:45:26.991Z,5.73
2023-03-15T18:47:53.621Z,6.03
2023-03-15T18:50:20.712Z,11.67
2023-03-15T18:52:47.740Z,15.57
2023-03-15T18:55:16.223Z,12.37
2023-03-15T18:57:43.300Z,8.77
2023-03-15T19:00:11.799Z,7.73
2023-03-15T19:02:39.940Z,6.07
2023-03-15T19:05:07.864Z,5.27
2023-03-15T19:07:34.498Z,4.40
2023-03-15T19:10:01.014Z,9.87
2023-03-15T19:12:27.525Z,15.00
2023-03-15T19:14:54.034Z,21.60
2023-03-15T19:17:20.559Z,15.10
2023-03-15T19:19:48.489Z,10.57
2023-03-15T19:22:15.129Z,8.83
2023-03-15T19:24:41.656Z,8.47
2023-03-15T19:27:08.233Z,7.20
2023-03-15T19:29:34.764Z,8.33
2023-03-15T19:32:01.335Z,9.60
2023-03-15T19:34:27.884Z,8.70
2023-03-15T19:36:55.766Z,30.93
2023-03-15T19:39:22.289Z,24.50
2023-03-15T19:41:48.859Z,53.50
2023-03-15T19:44:15.404Z,16.73
2023-03-15T19:46:42.052Z,11.17
2023-03-15T19:49:08.640Z,8.73
2023-03-15T19:51:35.204Z,8.33
2023-03-15T19:54:03.217Z,10.87
2023-03-15T19:56:29.740Z,7.80
2023-03-15T19:58:56.285Z,7.50
2023-03-15T20:01:23.532Z,7.97
2023-03-15T20:03:50.182Z,8.93
2023-03-15T20:06:16.781Z,9.17
2023-03-15T20:08:43.650Z,9.07
2023-03-15T20:11:11.516Z,9.07
2023-03-15T20:13:38.042Z,11.20
2023-03-15T20:16:05.241Z,14.13
2023-03-15T20:18:32.027Z,13.60
2023-03-15T20:20:58.604Z,14.60
2023-03-15T20:23:25.180Z,11.23
2023-03-15T20:25:51.718Z,11.10
2023-03-15T20:28:19.590Z,10.67
2023-03-15T20:30:46.112Z,6.83
2023-03-15T20:33:12.614Z,5.43
2023-03-15T20:35:39.991Z,6.10
2023-03-15T20:38:06.533Z,6.73
2023-03-15T20:40:33.860Z,5.43
2023-03-15T20:43:00.484Z,5.93
2023-03-15T20:45:28.662Z,5.70
2023-03-15T20:47:55.214Z,5.40
2023-03-15T20:50:21.888Z,5.57
2023-03-15T20:52:48.591Z,6.70
2023-03-15T20:55:15.195Z,5.53
2023-03-15T20:57:41.786Z,5.53
2023-03-15T21:00:10.251Z,6.47
2023-03-15T21:02:38.330Z,7.63
2023-03-15T21:05:05.662Z,5.80
2023-03-15T21:07:32.208Z,6.10
2023-03-15T21:09:58.715Z,4.50
2023-03-15T21:12:25.299Z,3.90
2023-03-15T21:14:51.817Z,4.27
2023-03-15T21:17:18.328Z,4.50
2023-03-15T21:19:46.201Z,4.63
2023-03-15T21:22:12.714Z,8.43
2023-03-15T21:24:52.906Z,9.57
2023-03-15T21:27:21.130Z,7.40
2023-03-15T21:29:47.636Z,7.37
2023-03-15T21:32:14.149Z,9.33
2023-03-15T21:34:40.705Z,14.03
2023-03-15T21:37:09.930Z,8.47
2023-03-15T21:39:36.482Z,7.03
2023-03-15T21:42:03.205Z,6.93
2023-03-15T21:44:29.734Z,5.50
2023-03-15T21:46:56.215Z,4.97
2023-03-15T21:49:22.836Z,5.23
2023-03-15T21:51:49.380Z,7.73
2023-03-15T21:54:17.635Z,6.27
2023-03-15T21:56:44.458Z,5.07
2023-03-15T21:59:10.954Z,6.53
2023-03-15T22:01:37.563Z,5.63
2023-03-15T22:04:04.198Z,6.87
2023-03-15T22:06:30.747Z,8.37
2023-03-15T22:08:57.273Z,6.27
2023-03-15T22:11:25.217Z,7.17
2023-03-15T22:13:51.718Z,6.37
2023-03-15T22:16:18.326Z,5.33
2023-03-15T22:18:44.816Z,5.67
2023-03-15T22:21:11.322Z,5.30
2023-03-15T22:23:37.973Z,5.60
2023-03-15T22:26:04.466Z,5.33
2023-03-15T22:28:32.328Z,5.00
2023-03-15T22:30:58.903Z,6.30
2023-03-15T22:33:25.487Z,6.87
2023-03-15T22:35:56.528Z,4.20
2023-03-15T22:38:24.273Z,5.13
2023-03-15T22:40:59.333Z,7.47
2023-03-15T22:43:25.934Z,6.77
2023-03-15T22:45:53.797Z,6.67
2023-03-15T22:48:20.375Z,5.87
2023-03-15T22:50:46.895Z,5.67
2023-03-15T22:53:13.422Z,5.10
2023-03-15T22:55:39.949Z,5.03
2023-03-15T22:58:06.426Z,5.60
2023-03-15T23:00:33.025Z,5.43
2023-03-15T23:03:00.874Z,4.53
2023-03-15T23:05:27.379Z,4.60
2023-03-15T23:07:53.869Z,4.73
2023-03-15T23:10:20.563Z,4.40
2023-03-15T23:12:47.124Z,6.93
2023-03-15T23:15:13.696Z,6.67
2023-03-15T23:17:40.623Z,8.57
2023-03-15T23:20:09.904Z,11.30
2023-03-15T23:22:36.448Z,9.03
2023-03-15T23:25:03.089Z,7.93
2023-03-15T23:27:29.878Z,5.53
2023-03-15T23:29:56.382Z,5.53
2023-03-15T23:32:23.894Z,4.63
2023-03-15T23:34:50.484Z,6.97
2023-03-15T23:37:18.362Z,7.23
2023-03-15T23:39:44.935Z,6.10
2023-03-15T23:42:12.166Z,6.07
2023-03-15T23:44:38.703Z,6.67
2023-03-15T23:47:05.799Z,6.20
2023-03-15T23:49:32.809Z,6.30
2023-03-15T23:51:59.319Z,4.97
2023-03-15T23:54:27.222Z,4.60
2023-03-15T23:56:53.698Z,4.67
2023-03-15T23:59:20.231Z,5.33
